createdAt,value
2022-12-31T00:01:08.944Z,1.88
2022-12-31T00:03:37.455Z,1.90
2022-12-31T00:06:30.404Z,1.90
2022-12-31T00:09:00.331Z,1.42
2022-12-31T00:11:32.247Z,2.40
2022-12-31T00:14:03.655Z,2.75
2022-12-31T00:19:02.219Z,1.50
2022-12-31T00:21:33.325Z,1.90
2022-12-31T00:24:01.969Z,3.28
2022-12-31T00:26:32.742Z,2.08
2022-12-31T00:29:02.303Z,1.60
2022-12-31T00:31:33.438Z,2.13
2022-12-31T00:34:01.965Z,3.35
2022-12-31T00:36:36.035Z,2.10
2022-12-31T00:39:06.651Z,1.50
2022-12-31T00:41:35.194Z,1.75
2022-12-31T00:44:03.622Z,1.27
2022-12-31T00:46:32.931Z,2.85
2022-12-31T00:49:01.017Z,1.70
2022-12-31T00:51:29.172Z,1.95
2022-12-31T00:53:58.465Z,0.75
2022-12-31T00:56:29.124Z,1.15
2022-12-31T00:58:57.542Z,2.10
2022-12-31T01:01:31.834Z,1.13
2022-12-31T01:04:10.415Z,1.55
2022-12-31T01:06:42.073Z,3.15
2022-12-31T01:09:11.768Z,2.53
2022-12-31T01:11:40.100Z,0.88
2022-12-31T01:14:16.478Z,1.92
2022-12-31T01:16:48.125Z,1.35
2022-12-31T01:19:19.203Z,1.92
2022-12-31T01:21:49.109Z,2.53
2022-12-31T01:24:17.877Z,1.17
2022-12-31T01:26:46.844Z,0.70
2022-12-31T01:29:15.567Z,3.08
2022-12-31T01:31:43.828Z,1.00
2022-12-31T01:34:12.215Z,1.05
2022-12-31T01:36:40.698Z,1.13
2022-12-31T01:39:10.338Z,0.80
2022-12-31T01:41:42.815Z,0.88
2022-12-31T01:44:13.829Z,2.03
2022-12-31T01:47:03.746Z,1.77
2022-12-31T01:49:48.931Z,1.30
2022-12-31T01:52:26.763Z,0.90
2022-12-31T01:55:10.576Z,1.85
2022-12-31T01:57:39.292Z,0.60
2022-12-31T02:00:08.261Z,0.70
2022-12-31T02:02:36.401Z,2.28
2022-12-31T02:05:13.374Z,1.65
2022-12-31T02:07:41.454Z,1.23
2022-12-31T02:10:09.710Z,1.27
2022-12-31T02:12:37.728Z,1.10
2022-12-31T02:15:06.615Z,2.67
2022-12-31T02:18:18.295Z,3.80
2022-12-31T02:21:02.308Z,1.33
2022-12-31T02:24:07.057Z,2.53
2022-12-31T02:26:53.899Z,0.50
2022-12-31T02:29:52.582Z,0.85
2022-12-31T02:32:28.663Z,0.55
2022-12-31T02:35:18.913Z,0.63
2022-12-31T02:37:51.596Z,1.00
2022-12-31T02:40:22.169Z,2.55
2022-12-31T02:42:55.272Z,2.20
2022-12-31T02:45:30.478Z,2.67
2022-12-31T02:48:10.595Z,2.25
2022-12-31T02:50:58.724Z,1.20
2022-12-31T02:53:57.589Z,1.23
2022-12-31T02:57:00.931Z,2.15
2022-12-31T02:59:56.627Z,0.85
2022-12-31T03:02:25.758Z,1.85
2022-12-31T03:04:56.020Z,3.97
2022-12-31T03:07:30.500Z,2.05
2022-12-31T03:09:58.832Z,1.27
2022-12-31T03:12:55.972Z,0.40
2022-12-31T03:15:31.520Z,0.73
2022-12-31T03:18:04.893Z,1.10
2022-12-31T03:20:57.538Z,0.40
2022-12-31T03:23:37.438Z,1.88
2022-12-31T03:26:17.022Z,0.50
2022-12-31T03:28:48.860Z,1.67
2022-12-31T03:31:17.366Z,1.10
2022-12-31T03:33:45.376Z,0.57
2022-12-31T03:36:15.804Z,0.68
2022-12-31T03:38:48.544Z,1.27
2022-12-31T03:41:20.662Z,1.48
2022-12-31T03:43:48.611Z,0.50
2022-12-31T03:46:16.647Z,0.80
2022-12-31T03:48:44.763Z,0.52
2022-12-31T03:51:12.827Z,0.85
2022-12-31T03:53:40.872Z,0.60
2022-12-31T03:56:08.956Z,0.65
2022-12-31T03:58:36.967Z,1.35
2022-12-31T04:01:05.183Z,1.45
2022-12-31T04:03:33.321Z,0.60
2022-12-31T04:06:01.366Z,2.35
2022-12-31T04:08:29.355Z,1.73
2022-12-31T04:10:57.400Z,0.98
2022-12-31T04:13:25.403Z,1.65
2022-12-31T04:15:53.418Z,0.68
2022-12-31T04:18:21.543Z,3.00
2022-12-31T04:20:49.730Z,2.45
2022-12-31T04:23:18.056Z,3.10
2022-12-31T04:25:46.046Z,1.40
2022-12-31T04:28:14.076Z,1.45
2022-12-31T04:30:42.099Z,1.27
2022-12-31T04:33:10.235Z,1.30
2022-12-31T04:35:38.371Z,0.52
2022-12-31T04:38:06.427Z,2.67
2022-12-31T04:40:34.491Z,1.58
2022-12-31T04:43:02.513Z,2.20
2022-12-31T04:45:30.509Z,1.52
2022-12-31T04:47:58.568Z,2.83
2022-12-31T04:50:26.725Z,1.95
2022-12-31T04:52:55.225Z,1.45
2022-12-31T04:55:23.548Z,0.50
2022-12-31T04:57:51.686Z,0.85
2022-12-31T05:00:20.219Z,0.73
2022-12-31T05:02:48.340Z,3.15
2022-12-31T05:05:16.711Z,0.60
2022-12-31T05:07:44.718Z,2.63
2022-12-31T05:10:14.468Z,1.92
2022-12-31T05:12:42.514Z,4.00
2022-12-31T05:15:10.806Z,1.10
2022-12-31T05:17:38.861Z,0.80
2022-12-31T05:20:07.716Z,1.75
2022-12-31T05:22:41.963Z,1.05
2022-12-31T05:25:13.084Z,2.28
2022-12-31T05:27:41.361Z,2.72
2022-12-31T05:30:10.174Z,1.42
2022-12-31T05:32:38.625Z,0.60
2022-12-31T05:35:07.227Z,1.00
2022-12-31T05:37:35.702Z,1.58
2022-12-31T05:40:04.186Z,1.27
2022-12-31T05:42:32.192Z,1.20
2022-12-31T05:45:00.210Z,3.13
2022-12-31T05:47:28.430Z,1.42
2022-12-31T05:49:56.559Z,0.68
2022-12-31T05:52:24.744Z,1.25
2022-12-31T05:54:53.883Z,0.50
2022-12-31T05:57:24.120Z,1.67
2022-12-31T05:59:54.643Z,1.05
2022-12-31T06:02:23.371Z,2.60
2022-12-31T06:04:53.770Z,1.95
2022-12-31T06:07:26.891Z,1.05
2022-12-31T06:09:55.442Z,0.85
2022-12-31T06:12:24.536Z,1.63
2022-12-31T06:14:52.563Z,0.80
2022-12-31T06:17:21.732Z,1.27
2022-12-31T06:19:51.544Z,2.03
2022-12-31T06:22:20.440Z,2.92
2022-12-31T06:24:49.582Z,0.60
2022-12-31T06:27:18.927Z,1.05
2022-12-31T06:29:47.131Z,4.00
2022-12-31T06:32:15.237Z,1.30
2022-12-31T06:34:43.241Z,1.45
2022-12-31T06:37:15.520Z,2.67
2022-12-31T06:39:43.672Z,0.93
2022-12-31T06:42:11.719Z,0.70
2022-12-31T06:44:39.675Z,1.95
2022-12-31T06:47:07.894Z,2.42
2022-12-31T06:49:38.862Z,0.95
2022-12-31T06:52:06.896Z,1.80
2022-12-31T06:54:36.108Z,1.25
2022-12-31T06:57:04.409Z,1.10
2022-12-31T06:59:32.841Z,0.90
2022-12-31T07:02:15.817Z,1.00
2022-12-31T07:04:59.112Z,1.38
2022-12-31T07:07:40.441Z,3.90
2022-12-31T07:10:38.159Z,1.67
2022-12-31T07:13:16.021Z,1.77
2022-12-31T07:16:07.637Z,0.77
2022-12-31T07:21:29.544Z,3.60
2022-12-31T07:24:05.178Z,1.92
2022-12-31T07:26:54.283Z,3.03
2022-12-31T07:29:43.135Z,1.55
2022-12-31T07:32:11.084Z,3.63
2022-12-31T07:35:13.522Z,3.15
2022-12-31T07:37:54.630Z,2.45
2022-12-31T07:40:35.812Z,1.48
2022-12-31T07:43:19.328Z,0.80
2022-12-31T07:46:05.787Z,2.33
2022-12-31T07:48:35.341Z,1.33
2022-12-31T07:51:05.233Z,1.48
2022-12-31T07:53:39.007Z,2.05
2022-12-31T07:56:11.536Z,1.83
2022-12-31T07:58:49.574Z,3.45
2022-12-31T08:01:26.696Z,2.03
2022-12-31T08:04:06.857Z,3.05
2022-12-31T08:06:45.930Z,2.17
2022-12-31T08:09:32.663Z,2.38
2022-12-31T08:12:13.183Z,3.72
2022-12-31T08:14:48.866Z,1.67
2022-12-31T08:17:25.609Z,1.67
2022-12-31T08:20:17.539Z,3.05
2022-12-31T08:26:00.962Z,1.70
2022-12-31T08:29:09.088Z,3.90
2022-12-31T08:32:05.527Z,1.23
2022-12-31T08:34:42.339Z,2.05
2022-12-31T08:37:16.839Z,2.40
2022-12-31T08:40:13.943Z,0.77
2022-12-31T08:43:03.322Z,1.52
2022-12-31T08:45:42.955Z,1.48
2022-12-31T08:48:19.824Z,1.73
2022-12-31T08:50:48.027Z,3.95
2022-12-31T08:53:16.126Z,2.33
2022-12-31T08:55:51.238Z,0.50
2022-12-31T08:59:05.125Z,1.83
2022-12-31T09:01:45.283Z,1.60
2022-12-31T09:04:40.469Z,0.95
2022-12-31T09:07:10.689Z,0.95
2022-12-31T09:10:00.578Z,2.10
2022-12-31T09:12:57.522Z,2.30
2022-12-31T09:15:53.742Z,2.90
2022-12-31T09:18:23.088Z,0.60
2022-12-31T09:20:52.911Z,1.35
2022-12-31T09:23:21.244Z,3.42
2022-12-31T09:26:31.966Z,2.60
2022-12-31T09:29:05.970Z,1.75
2022-12-31T09:31:58.028Z,2.88
2022-12-31T09:34:35.322Z,1.83
2022-12-31T09:37:39.626Z,1.38
2022-12-31T09:40:45.997Z,9.05
2022-12-31T09:43:43.027Z,7.43
2022-12-31T09:46:44.586Z,2.05
2022-12-31T09:49:44.064Z,1.00
2022-12-31T09:52:43.933Z,1.15
2022-12-31T09:55:48.664Z,1.85
2022-12-31T09:58:29.456Z,1.27
2022-12-31T10:01:14.726Z,3.35
2022-12-31T10:04:26.696Z,0.88
2022-12-31T10:10:10.606Z,2.35
2022-12-31T10:13:16.107Z,1.70
2022-12-31T10:16:21.818Z,2.28
2022-12-31T10:19:12.747Z,1.48
2022-12-31T10:22:00.148Z,1.08
2022-12-31T10:24:50.537Z,4.90
2022-12-31T10:27:40.615Z,2.15
2022-12-31T10:30:18.794Z,1.25
2022-12-31T10:33:22.388Z,1.48
2022-12-31T10:36:10.622Z,0.50
2022-12-31T10:39:24.879Z,0.77
2022-12-31T10:41:58.007Z,5.80
2022-12-31T10:44:39.742Z,1.20
2022-12-31T10:47:22.464Z,2.40
2022-12-31T10:50:14.907Z,1.75
2022-12-31T10:53:16.754Z,1.10
2022-12-31T10:55:56.876Z,1.67
2022-12-31T10:58:53.445Z,1.25
2022-12-31T11:01:35.696Z,3.72
2022-12-31T11:04:09.709Z,0.93
2022-12-31T11:07:03.963Z,0.93
2022-12-31T11:09:43.115Z,1.40
2022-12-31T11:12:44.692Z,0.95
2022-12-31T11:18:07.365Z,1.50
2022-12-31T11:21:07.492Z,4.22
2022-12-31T11:23:50.261Z,1.23
2022-12-31T11:26:57.304Z,2.17
2022-12-31T11:30:13.324Z,3.65
2022-12-31T11:33:06.010Z,1.40
2022-12-31T11:35:58.201Z,1.33
2022-12-31T11:38:50.242Z,1.15
2022-12-31T11:41:40.518Z,2.67
2022-12-31T11:44:30.304Z,2.05
2022-12-31T11:47:26.770Z,2.10
2022-12-31T11:50:16.739Z,1.67
2022-12-31T11:53:00.928Z,4.32
2022-12-31T11:55:39.587Z,1.65
2022-12-31T11:58:17.604Z,2.33
2022-12-31T12:01:05.220Z,0.98
2022-12-31T12:03:33.997Z,0.88
2022-12-31T12:06:02.013Z,0.95
2022-12-31T12:08:33.454Z,5.00
2022-12-31T12:11:08.926Z,1.08
2022-12-31T12:13:36.808Z,0.98
2022-12-31T12:16:08.883Z,1.08
2022-12-31T12:18:41.865Z,1.85
2022-12-31T12:21:21.071Z,1.58
2022-12-31T12:24:35.688Z,4.38
2022-12-31T12:27:03.620Z,3.22
2022-12-31T12:29:37.623Z,2.60
2022-12-31T12:32:18.081Z,4.03
2022-12-31T12:34:49.810Z,2.25
2022-12-31T12:37:26.001Z,2.38
2022-12-31T12:40:06.471Z,2.03
2022-12-31T12:42:51.821Z,1.38
2022-12-31T12:45:26.344Z,2.55
2022-12-31T12:48:03.602Z,2.40
2022-12-31T12:50:45.189Z,2.80
2022-12-31T12:53:32.051Z,3.67
2022-12-31T12:56:31.669Z,1.58
2022-12-31T12:59:21.617Z,1.35
2022-12-31T13:02:06.158Z,1.40
2022-12-31T13:05:03.647Z,1.67
2022-12-31T13:07:49.667Z,1.38
2022-12-31T13:10:17.598Z,1.10
2022-12-31T13:13:25.417Z,2.05
2022-12-31T13:16:11.792Z,3.65
2022-12-31T13:18:54.224Z,2.78
2022-12-31T13:21:45.275Z,1.23
2022-12-31T13:24:51.935Z,4.20
2022-12-31T13:27:35.831Z,1.10
2022-12-31T13:30:13.729Z,1.48
2022-12-31T13:32:51.134Z,1.15
2022-12-31T13:35:54.712Z,2.33
2022-12-31T13:38:35.797Z,11.07
2022-12-31T13:41:56.650Z,2.70
2022-12-31T13:44:37.415Z,2.25
2022-12-31T13:47:28.555Z,2.13
2022-12-31T13:50:01.921Z,2.63
2022-12-31T13:52:54.076Z,1.73
2022-12-31T13:55:35.390Z,2.50
2022-12-31T14:01:15.693Z,1.10
2022-12-31T14:04:06.276Z,3.22
2022-12-31T14:07:05.773Z,2.47
2022-12-31T14:09:36.163Z,1.88
2022-12-31T14:12:27.226Z,5.13
2022-12-31T14:15:04.180Z,3.40
2022-12-31T14:18:03.276Z,3.88
2022-12-31T14:20:43.176Z,4.97
2022-12-31T14:23:36.099Z,1.10
2022-12-31T14:26:14.156Z,1.63
2022-12-31T14:28:49.136Z,3.38
2022-12-31T14:31:17.127Z,2.25
2022-12-31T14:33:56.088Z,2.58
2022-12-31T14:36:52.815Z,2.70
2022-12-31T14:39:26.393Z,2.50
2022-12-31T14:42:13.547Z,1.92
2022-12-31T14:45:06.689Z,6.18
2022-12-31T14:48:04.187Z,4.55
2022-12-31T14:50:35.020Z,9.68
2022-12-31T14:53:07.351Z,2.80
2022-12-31T14:55:40.159Z,3.03
2022-12-31T14:58:34.782Z,3.25
2022-12-31T15:01:17.090Z,3.80
2022-12-31T15:03:46.559Z,3.63
2022-12-31T15:06:33.501Z,3.72
2022-12-31T15:09:39.782Z,3.65
2022-12-31T15:12:16.734Z,3.75
2022-12-31T15:15:20.350Z,3.28
2022-12-31T15:18:06.284Z,3.13
2022-12-31T15:20:46.128Z,4.85
2022-12-31T15:23:39.229Z,4.32
2022-12-31T15:26:23.590Z,3.78
2022-12-31T15:29:05.240Z,4.72
2022-12-31T15:34:08.021Z,3.20
2022-12-31T15:36:40.584Z,5.25
2022-12-31T15:39:31.637Z,6.88
2022-12-31T15:44:52.899Z,3.88
2022-12-31T15:50:09.036Z,5.75
2022-12-31T15:52:43.231Z,9.45
2022-12-31T15:55:34.935Z,6.43
2022-12-31T15:58:11.372Z,8.63
2022-12-31T16:01:07.482Z,6.38
2022-12-31T16:03:36.076Z,21.63
2022-12-31T16:06:11.708Z,10.55
2022-12-31T16:08:47.535Z,12.85
2022-12-31T16:11:16.596Z,10.95
2022-12-31T16:13:49.534Z,9.13
2022-12-31T16:16:25.595Z,33.00
2022-12-31T16:18:54.317Z,31.67
2022-12-31T16:21:34.861Z,19.23
2022-12-31T16:24:25.409Z,14.85
2022-12-31T16:26:56.037Z,12.40
2022-12-31T16:29:25.211Z,11.40
2022-12-31T16:31:54.835Z,7.63
2022-12-31T16:34:28.482Z,7.53
2022-12-31T16:37:01.003Z,8.98
2022-12-31T16:39:42.079Z,14.70
2022-12-31T16:42:22.355Z,10.48
2022-12-31T16:44:52.111Z,11.85
2022-12-31T16:47:20.123Z,13.32
2022-12-31T16:49:53.285Z,8.43
2022-12-31T16:52:36.586Z,10.25
2022-12-31T16:55:09.873Z,10.68
2022-12-31T16:57:38.189Z,13.00
2022-12-31T17:00:08.041Z,12.48
2022-12-31T17:02:40.074Z,9.48
2022-12-31T17:05:19.700Z,11.55
2022-12-31T17:07:47.724Z,11.90
2022-12-31T17:10:27.419Z,13.45
2022-12-31T17:13:28.053Z,13.85
2022-12-31T17:15:49.720Z,12.57
2022-12-31T17:18:31.436Z,15.10
2022-12-31T17:21:08.441Z,13.32
2022-12-31T17:23:39.089Z,11.85
2022-12-31T17:26:25.343Z,14.70
2022-12-31T17:28:56.639Z,13.13
2022-12-31T17:31:42.261Z,13.32
2022-12-31T17:34:16.267Z,13.38
2022-12-31T17:37:14.308Z,12.18
2022-12-31T17:39:53.256Z,15.88
2022-12-31T17:42:37.617Z,15.73
2022-12-31T17:45:16.783Z,16.50
2022-12-31T17:47:49.286Z,27.95
2022-12-31T17:50:28.854Z,27.40
2022-12-31T17:53:13.639Z,26.70
2022-12-31T17:55:43.272Z,23.52
2022-12-31T17:58:29.602Z,23.27
2022-12-31T18:01:03.767Z,25.63
2022-12-31T18:03:31.753Z,84.82
2022-12-31T18:05:59.726Z,27.33
2022-12-31T18:08:27.660Z,53.13
2022-12-31T18:10:56.231Z,32.90
2022-12-31T18:13:26.459Z,29.75
2022-12-31T18:15:55.257Z,23.35
2022-12-31T18:18:26.286Z,27.23
2022-12-31T18:20:58.698Z,31.77
2022-12-31T18:23:41.408Z,40.63
2022-12-31T18:26:17.924Z,46.10
2022-12-31T18:28:46.487Z,48.05
2022-12-31T18:31:27.842Z,52.67
2022-12-31T18:34:00.989Z,44.25
2022-12-31T18:36:32.113Z,35.03
2022-12-31T18:39:00.135Z,55.17
2022-12-31T18:41:40.717Z,51.75
2022-12-31T18:44:12.742Z,34.10
2022-12-31T18:46:40.776Z,34.58
2022-12-31T18:49:09.539Z,37.33
2022-12-31T18:51:37.624Z,35.90
2022-12-31T18:54:06.312Z,49.85
2022-12-31T18:56:34.262Z,76.07
2022-12-31T18:59:03.641Z,47.63
2022-12-31T19:01:34.757Z,41.13
2022-12-31T19:04:05.016Z,42.15
2022-12-31T19:06:33.017Z,41.58
2022-12-31T19:09:01.291Z,36.90
2022-12-31T19:11:29.597Z,36.15
2022-12-31T19:13:57.498Z,40.20
2022-12-31T19:16:25.616Z,39.65
2022-12-31T19:18:53.558Z,50.17
2022-12-31T19:21:23.807Z,50.63
2022-12-31T19:23:53.251Z,39.80
2022-12-31T19:26:22.797Z,35.65
2022-12-31T19:28:51.901Z,37.50
2022-12-31T19:31:20.007Z,34.75
2022-12-31T19:33:48.143Z,34.55
2022-12-31T19:36:20.860Z,33.25
2022-12-31T19:38:48.834Z,32.90
2022-12-31T19:41:24.275Z,36.75
2022-12-31T19:43:52.235Z,33.63
2022-12-31T19:46:21.836Z,35.08
2022-12-31T19:48:49.836Z,44.35
2022-12-31T19:51:20.405Z,38.22
2022-12-31T19:53:49.983Z,39.43
2022-12-31T19:56:20.668Z,31.67
2022-12-31T19:58:48.838Z,35.60
2022-12-31T20:01:22.695Z,33.92
2022-12-31T20:03:51.635Z,32.92
2022-12-31T20:06:20.858Z,38.95
2022-12-31T20:08:48.912Z,38.97
2022-12-31T20:11:19.729Z,31.48
2022-12-31T20:13:49.407Z,41.80
2022-12-31T20:16:19.968Z,45.30
2022-12-31T20:18:49.275Z,42.17
2022-12-31T20:21:20.695Z,41.78
2022-12-31T20:26:17.504Z,48.97
2022-12-31T20:28:45.515Z,37.35
2022-12-31T20:31:19.773Z,49.83
2022-12-31T20:33:47.835Z,44.17
2022-12-31T20:36:17.941Z,63.38
2022-12-31T20:38:46.680Z,55.13
2022-12-31T20:41:23.639Z,57.42
2022-12-31T20:43:54.706Z,52.03
2022-12-31T20:46:25.809Z,69.55
2022-12-31T20:48:57.108Z,88.28
2022-12-31T20:51:26.715Z,85.40
2022-12-31T20:54:01.668Z,88.03
2022-12-31T20:56:32.123Z,85.65
2022-12-31T20:59:00.277Z,105.10
2022-12-31T21:01:41.723Z,111.82
2022-12-31T21:04:16.922Z,103.00
2022-12-31T21:06:45.095Z,109.72
2022-12-31T21:09:13.131Z,92.78
2022-12-31T21:12:00.481Z,109.85
2022-12-31T21:14:28.517Z,91.75
2022-12-31T21:16:58.021Z,71.22
2022-12-31T21:19:29.071Z,83.45
2022-12-31T21:21:57.051Z,52.40
2022-12-31T21:24:25.093Z,61.92
2022-12-31T21:26:55.941Z,62.17
2022-12-31T21:29:24.587Z,166.63
2022-12-31T21:31:52.560Z,72.95
2022-12-31T21:34:20.545Z,57.20
2022-12-31T21:36:48.677Z,45.58
2022-12-31T21:39:16.618Z,59.05
2022-12-31T21:41:53.383Z,29.90
2022-12-31T21:44:23.346Z,36.45
2022-12-31T21:47:33.982Z,45.90
2022-12-31T21:49:45.368Z,37.10
2022-12-31T21:52:34.554Z,32.85
2022-12-31T21:55:23.840Z,37.47
2022-12-31T21:58:24.701Z,28.15
2022-12-31T22:00:59.506Z,25.63
2022-12-31T22:03:33.409Z,23.38
2022-12-31T22:06:17.254Z,23.15
2022-12-31T22:08:46.845Z,20.45
2022-12-31T22:11:16.481Z,29.55
2022-12-31T22:13:44.823Z,49.47
2022-12-31T22:16:15.149Z,43.50
2022-12-31T22:18:45.104Z,44.28
2022-12-31T22:21:19.015Z,55.40
2022-12-31T22:23:53.428Z,45.85
2022-12-31T22:26:27.292Z,45.20
2022-12-31T22:29:00.131Z,39.13
2022-12-31T22:31:31.246Z,29.88
2022-12-31T22:34:00.517Z,34.20
2022-12-31T22:36:35.872Z,31.80
2022-12-31T22:39:07.029Z,30.02
2022-12-31T22:41:35.313Z,28.90
2022-12-31T22:44:05.375Z,42.60
2022-12-31T22:46:34.325Z,39.58
2022-12-31T22:49:05.215Z,46.08
2022-12-31T22:51:54.739Z,51.08
2022-12-31T22:54:23.479Z,40.75
2022-12-31T22:56:51.806Z,39.17
2022-12-31T22:59:19.784Z,43.70
2022-12-31T23:01:47.901Z,41.00
2022-12-31T23:04:16.189Z,38.25
2022-12-31T23:06:47.092Z,39.13
2022-12-31T23:09:35.509Z,68.10
2022-12-31T23:12:08.603Z,124.57
2022-12-31T23:14:58.276Z,160.23
2022-12-31T23:17:46.872Z,281.38
2022-12-31T23:20:37.288Z,451.42
2022-12-31T23:23:12.855Z,422.27
2022-12-31T23:25:44.371Z,331.35
2022-12-31T23:30:43.762Z,288.02
2022-12-31T23:33:19.019Z,277.63
2022-12-31T23:35:47.082Z,237.80
2022-12-31T23:38:17.711Z,254.52
2022-12-31T23:40:46.178Z,282.85
2022-12-31T23:43:21.488Z,221.32
2022-12-31T23:45:51.431Z,408.95
2022-12-31T23:48:19.651Z,310.33
2022-12-31T23:50:53.460Z,331.70
2022-12-31T23:53:23.294Z,298.48
2022-12-31T23:55:52.020Z,288.92
2022-12-31T23:58:20.295Z,245.52
